createdAt,value
2022-09-30T00:02:35.987Z,2.93
2022-09-30T00:07:42.161Z,2.90
2022-09-30T00:12:48.708Z,3.21
2022-09-30T00:17:54.849Z,4.75
2022-09-30T00:23:01.030Z,4.49
2022-09-30T00:28:07.337Z,4.45
2022-09-30T00:33:13.594Z,2.87
2022-09-30T00:38:19.916Z,4.36
2022-09-30T00:43:26.234Z,2.86
2022-09-30T00:48:32.816Z,2.92
2022-09-30T00:53:39.140Z,3.15
2022-09-30T00:58:45.411Z,2.79
2022-09-30T01:03:51.679Z,4.76
2022-09-30T01:08:58.013Z,2.95
2022-09-30T01:14:04.275Z,4.18
2022-09-30T01:19:10.754Z,4.53
2022-09-30T01:24:17.110Z,4.67
2022-09-30T01:29:23.613Z,2.91
2022-09-30T01:34:29.942Z,4.96
2022-09-30T01:39:36.261Z,2.87
2022-09-30T01:44:42.587Z,4.51
2022-09-30T01:49:48.857Z,2.83
2022-09-30T01:54:55.239Z,4.03
2022-09-30T02:00:01.605Z,4.48
2022-09-30T02:05:07.851Z,3.11
2022-09-30T02:10:14.155Z,4.58
2022-09-30T02:15:20.530Z,2.95
2022-09-30T02:20:26.888Z,2.71
2022-09-30T02:25:33.186Z,4.34
2022-09-30T02:30:39.497Z,3.06
2022-09-30T02:35:46.386Z,3.00
2022-09-30T02:40:52.626Z,3.03
2022-09-30T02:45:58.900Z,4.11
2022-09-30T02:51:05.203Z,3.01
2022-09-30T02:56:11.580Z,3.89
2022-09-30T03:01:19.100Z,4.05
2022-09-30T03:06:25.427Z,3.13
2022-09-30T03:11:32.428Z,3.08
2022-09-30T03:16:38.781Z,3.12
2022-09-30T03:21:45.056Z,3.05
2022-09-30T03:26:51.578Z,3.09
2022-09-30T03:31:57.811Z,3.09
2022-09-30T03:37:04.553Z,4.53
2022-09-30T03:42:10.209Z,5.26
2022-09-30T03:47:16.477Z,3.86
2022-09-30T03:52:22.849Z,5.26
2022-09-30T03:57:29.158Z,3.33
2022-09-30T04:02:35.463Z,3.41
2022-09-30T04:07:41.936Z,3.27
2022-09-30T04:12:48.232Z,3.43
2022-09-30T04:17:54.564Z,3.44
2022-09-30T04:23:03.075Z,3.35
2022-09-30T04:28:23.527Z,3.08
2022-09-30T04:33:21.184Z,3.13
2022-09-30T04:38:32.445Z,2.81
2022-09-30T04:43:30.386Z,3.01
2022-09-30T04:48:41.230Z,2.97
2022-09-30T04:53:40.441Z,3.02
2022-09-30T04:58:56.722Z,4.24
2022-09-30T05:03:52.218Z,3.29
2022-09-30T05:09:19.921Z,2.95
2022-09-30T05:14:08.883Z,3.06
2022-09-30T05:19:18.338Z,3.24
2022-09-30T05:24:26.040Z,3.02
2022-09-30T05:29:42.964Z,3.13
2022-09-30T05:34:43.110Z,3.30
2022-09-30T05:39:41.927Z,3.34
2022-09-30T05:44:50.560Z,2.96
2022-09-30T05:50:02.136Z,3.05
2022-09-30T05:55:00.562Z,2.94
2022-09-30T06:00:12.274Z,3.01
2022-09-30T06:05:10.333Z,2.96
2022-09-30T06:10:18.155Z,3.72
2022-09-30T06:15:29.698Z,3.40
2022-09-30T06:20:28.911Z,4.18
2022-09-30T06:25:37.891Z,3.30
2022-09-30T06:30:47.856Z,5.96
2022-09-30T06:35:54.589Z,5.48
2022-09-30T06:41:10.258Z,3.36
2022-09-30T06:46:17.484Z,3.91
2022-09-30T06:51:10.064Z,5.83
2022-09-30T06:57:05.526Z,4.21
2022-09-30T07:01:16.095Z,4.55
2022-09-30T07:06:52.502Z,4.59
2022-09-30T07:11:24.167Z,7.37
2022-09-30T07:16:33.687Z,4.61
2022-09-30T07:22:47.697Z,6.38
2022-09-30T07:27:02.858Z,3.62
2022-09-30T14:28:30.080Z,0.92
2022-09-30T14:33:06.394Z,0.78
2022-09-30T14:38:12.650Z,0.70
2022-09-30T14:43:18.920Z,0.61
2022-09-30T14:48:25.189Z,0.85
2022-09-30T14:53:31.491Z,0.70
2022-09-30T14:58:37.768Z,0.64
2022-09-30T15:03:44.157Z,0.81
2022-09-30T15:08:50.559Z,0.99
2022-09-30T15:13:56.986Z,0.65
2022-09-30T15:19:03.205Z,0.72
2022-09-30T15:24:09.489Z,0.83
2022-09-30T15:29:15.835Z,0.59
2022-09-30T15:34:24.005Z,0.50
2022-09-30T15:39:31.332Z,0.63
2022-09-30T15:44:37.155Z,0.42
2022-09-30T15:49:43.434Z,0.66
2022-09-30T15:54:49.754Z,0.52
2022-09-30T15:59:56.274Z,0.62
2022-09-30T16:05:02.810Z,0.67
2022-09-30T16:10:10.522Z,0.56
2022-09-30T16:15:16.853Z,0.50
2022-09-30T16:20:24.267Z,0.99
2022-09-30T16:25:29.523Z,0.44
2022-09-30T16:30:35.805Z,0.59
2022-09-30T16:35:42.136Z,0.66
2022-09-30T16:40:48.483Z,0.59
2022-09-30T16:45:54.816Z,0.67
2022-09-30T16:51:01.033Z,0.63
2022-09-30T16:56:07.344Z,1.22
2022-09-30T17:01:14.828Z,1.25
2022-09-30T17:06:21.203Z,0.78
2022-09-30T17:11:28.051Z,1.01
2022-09-30T17:16:34.659Z,0.88
2022-09-30T17:21:40.126Z,1.76
2022-09-30T17:26:46.412Z,0.87
2022-09-30T17:31:52.725Z,0.87
2022-09-30T17:36:58.992Z,0.66
2022-09-30T17:42:05.193Z,2.21
2022-09-30T17:47:11.501Z,1.32
2022-09-30T17:52:17.763Z,1.90
2022-09-30T17:58:00.098Z,1.66
2022-09-30T18:02:26.386Z,1.09
2022-09-30T18:07:32.566Z,1.02
2022-09-30T18:12:38.854Z,1.21
2022-09-30T18:17:45.137Z,1.12
2022-09-30T18:22:51.386Z,1.14
2022-09-30T18:27:57.841Z,0.82
2022-09-30T18:33:04.113Z,1.63
2022-09-30T18:38:10.399Z,1.19
2022-09-30T18:43:16.750Z,1.44
2022-09-30T18:48:22.922Z,1.32
2022-09-30T18:53:31.794Z,2.07
2022-09-30T18:58:36.224Z,1.25
2022-09-30T19:03:42.749Z,1.11
2022-09-30T19:08:49.615Z,1.11
2022-09-30T19:13:56.018Z,1.15
2022-09-30T19:19:02.255Z,0.95
2022-09-30T19:24:09.379Z,1.51
2022-09-30T19:29:15.729Z,1.05
2022-09-30T19:34:28.972Z,1.69
2022-09-30T19:39:35.958Z,1.77
2022-09-30T19:44:33.482Z,1.19
2022-09-30T19:49:39.733Z,1.89
2022-09-30T19:54:46.112Z,1.05
2022-09-30T19:59:52.373Z,1.18
2022-09-30T20:04:59.407Z,3.05
2022-09-30T20:10:05.660Z,4.65
2022-09-30T20:15:11.934Z,1.55
2022-09-30T20:20:18.211Z,1.39
2022-09-30T20:25:24.442Z,1.33
2022-09-30T20:30:30.640Z,1.26
2022-09-30T20:35:36.855Z,2.02
2022-09-30T20:40:43.037Z,1.44
2022-09-30T20:45:50.589Z,1.06
2022-09-30T20:50:56.678Z,1.34
2022-09-30T20:56:04.867Z,1.64
2022-09-30T21:01:11.331Z,1.23
2022-09-30T21:06:31.080Z,1.21
2022-09-30T21:11:27.427Z,1.34
2022-09-30T21:16:33.734Z,1.41
2022-09-30T21:21:39.926Z,1.37
2022-09-30T21:26:46.362Z,1.25
2022-09-30T21:31:52.721Z,1.67
2022-09-30T21:37:08.042Z,1.39
2022-09-30T21:42:04.261Z,1.29
2022-09-30T21:47:10.512Z,1.41
2022-09-30T21:52:16.781Z,2.36
2022-09-30T21:57:23.051Z,1.49
2022-09-30T22:02:29.386Z,1.75
2022-09-30T22:07:35.650Z,1.53
2022-09-30T22:12:41.903Z,1.48
2022-09-30T22:17:49.541Z,1.46
2022-09-30T22:22:55.915Z,1.47
2022-09-30T22:28:02.279Z,1.52
2022-09-30T22:33:08.529Z,2.09
2022-09-30T22:38:14.880Z,1.19
2022-09-30T22:43:22.499Z,1.49
2022-09-30T22:48:28.871Z,1.97
2022-09-30T22:53:36.204Z,1.33
2022-09-30T22:58:42.553Z,2.02
2022-09-30T23:03:48.978Z,2.04
2022-09-30T23:08:55.158Z,1.96
2022-09-30T23:14:01.506Z,10.37
2022-09-30T23:19:07.725Z,1.61
2022-09-30T23:24:17.049Z,1.81
2022-09-30T23:29:23.313Z,1.19
2022-09-30T23:34:29.539Z,1.42
2022-09-30T23:39:35.925Z,1.98
2022-09-30T23:44:42.144Z,1.75
2022-09-30T23:49:48.379Z,1.22
2022-09-30T23:54:54.602Z,1.29
